Time;durP1;ratioP1;P1;durP2;ratioP2;P2;SDS_P1;SDS_P2;PMS_P1;PMS_P2;Temp;Humidity;BMP_temperature;BMP_pressure;BME280_temperature;BME280_humidity;BME280_pressure;Samples;Min_cycle;Max_cycle;Signal;HPM_P1;HPM_P2
2024/01/17 00:01:11;;;;;;;8.13;8.03;;;-4.20;99.90;;;;;;4998848;28;20470;-71
2024/01/17 00:03:38;;;;;;;8.00;7.90;;;-4.20;99.90;;;;;;5000938;28;20458;-73
2024/01/17 00:06:05;;;;;;;7.40;7.30;;;-4.20;99.90;;;;;;5001314;28;20815;-71
2024/01/17 00:08:32;;;;;;;7.00;6.90;;;-4.30;99.90;;;;;;5005925;28;20828;-72
2024/01/17 00:11:01;;;;;;;7.60;7.50;;;-4.30;99.90;;;;;;4997851;28;20470;-73
2024/01/17 00:13:28;;;;;;;8.67;8.57;;;-4.30;99.90;;;;;;4998795;28;20496;-70
2024/01/17 00:15:54;;;;;;;8.13;8.03;;;-4.30;99.90;;;;;;5000235;28;20730;-72
2024/01/17 00:18:22;;;;;;;7.87;7.77;;;-4.30;99.90;;;;;;5005422;28;20517;-72
2024/01/17 00:20:50;;;;;;;7.17;7.07;;;-4.40;99.90;;;;;;5005084;28;20554;-71
2024/01/17 00:23:17;;;;;;;7.67;7.57;;;-4.40;99.90;;;;;;5000604;28;20468;-71
2024/01/17 00:25:43;;;;;;;7.83;7.73;;;-4.40;99.90;;;;;;5005187;28;20466;-73
2024/01/17 00:28:10;;;;;;;7.23;7.13;;;-4.40;99.90;;;;;;5003843;28;20658;-72
2024/01/17 00:30:37;;;;;;;8.13;8.03;;;-4.40;99.90;;;;;;5001697;28;20625;-71
2024/01/17 00:33:04;;;;;;;7.23;7.13;;;-4.50;99.90;;;;;;5003154;28;20941;-73
2024/01/17 00:35:32;;;;;;;7.60;7.50;;;-4.50;99.90;;;;;;5006130;28;20469;-71
2024/01/17 00:38:00;;;;;;;7.73;7.63;;;-4.50;99.90;;;;;;5001860;28;21164;-70
2024/01/17 00:40:27;;;;;;;7.20;7.10;;;-4.50;99.90;;;;;;5007061;28;20489;-71
2024/01/17 00:42:55;;;;;;;7.40;7.30;;;-4.50;99.90;;;;;;5008772;28;20493;-73
2024/01/17 00:45:21;;;;;;;7.17;7.07;;;-4.50;99.90;;;;;;5003331;28;20761;-71
2024/01/17 00:47:48;;;;;;;6.97;6.87;;;-4.50;99.90;;;;;;5014381;28;20492;-71
2024/01/17 00:50:18;;;;;;;7.17;7.07;;;-4.50;99.90;;;;;;5012253;28;20473;-70
2024/01/17 00:52:46;;;;;;;7.10;7.00;;;-4.50;99.90;;;;;;5004836;28;20569;-70
2024/01/17 00:55:13;;;;;;;6.97;6.87;;;-4.40;99.90;;;;;;5001334;28;20477;-72
2024/01/17 00:57:41;;;;;;;6.70;6.60;;;-4.40;99.90;;;;;;4999980;28;20464;-73
2024/01/17 01:00:09;;;;;;;7.20;7.10;;;-4.40;99.90;;;;;;5008393;28;20464;-72
2024/01/17 01:02:51;;;;;;;7.57;7.47;;;-4.40;99.90;;;;;;5013455;28;20465;-72
2024/01/17 01:08:15;;;;;;;7.30;7.20;;;-4.40;99.90;;;;;;5004492;28;20470;-72
2024/01/17 01:10:42;;;;;;;7.60;7.50;;;-4.40;99.90;;;;;;5005078;28;20491;-72
2024/01/17 01:13:09;;;;;;;6.70;6.60;;;-4.40;99.90;;;;;;5003254;28;20466;-72
2024/01/17 01:15:36;;;;;;;7.10;7.00;;;-4.40;99.90;;;;;;5003854;28;20473;-70
2024/01/17 01:18:03;;;;;;;7.17;7.07;;;-4.40;99.90;;;;;;4995605;28;20462;-73
2024/01/17 01:20:29;;;;;;;7.30;7.20;;;-4.40;99.90;;;;;;5008405;28;20471;-72
2024/01/17 01:22:56;;;;;;;7.00;6.90;;;-4.40;99.90;;;;;;5000927;28;20847;-71
2024/01/17 01:25:25;;;;;;;7.70;7.60;;;-4.40;99.90;;;;;;5003094;28;20477;-70
2024/01/17 01:27:52;;;;;;;7.13;7.03;;;-4.40;99.90;;;;;;5009847;28;21006;-70
2024/01/17 01:30:19;;;;;;;7.40;7.30;;;-4.30;99.90;;;;;;5003282;28;20488;-73
2024/01/17 01:32:46;;;;;;;8.00;7.90;;;-4.30;99.90;;;;;;5010501;28;20469;-72
2024/01/17 01:35:13;;;;;;;7.43;7.33;;;-4.20;99.90;;;;;;5004358;28;21097;-73
2024/01/17 01:37:40;;;;;;;7.50;7.40;;;-4.30;99.90;;;;;;5004199;28;20465;-72
2024/01/17 01:40:08;;;;;;;7.23;7.13;;;-4.20;99.90;;;;;;5004643;28;20985;-73
2024/01/17 01:42:37;;;;;;;8.07;7.97;;;-4.20;99.90;;;;;;5000568;28;20900;-73
2024/01/17 01:45:06;;;;;;;7.10;7.00;;;-4.10;99.90;;;;;;5006750;28;20542;-71
2024/01/17 01:47:32;;;;;;;8.00;7.90;;;-4.10;99.90;;;;;;4994183;28;20481;-72
2024/01/17 01:49:59;;;;;;;7.20;7.10;;;-4.10;99.90;;;;;;5003537;28;20776;-70
2024/01/17 01:52:27;;;;;;;7.20;7.10;;;-4.10;99.90;;;;;;5002442;28;21081;-73
2024/01/17 01:54:56;;;;;;;7.20;7.10;;;-4.10;99.90;;;;;;5002378;28;20988;-73
2024/01/17 01:57:25;;;;;;;8.60;8.50;;;-4.10;99.90;;;;;;5006333;28;20951;-72
2024/01/17 01:59:53;;;;;;;7.47;7.37;;;-4.10;99.90;;;;;;5001836;28;20868;-71
2024/01/17 02:02:19;;;;;;;8.10;8.00;;;-4.10;99.90;;;;;;5000295;28;20475;-73
2024/01/17 02:04:46;;;;;;;8.53;8.43;;;-4.10;99.90;;;;;;5002840;28;20465;-73
2024/01/17 02:07:15;;;;;;;7.80;7.70;;;-4.20;99.90;;;;;;5013676;28;20462;-71
2024/01/17 02:09:44;;;;;;;7.80;7.70;;;-4.10;99.90;;;;;;5005552;28;21040;-72
2024/01/17 02:12:12;;;;;;;7.80;7.70;;;-4.10;99.90;;;;;;5005042;28;20465;-72
2024/01/17 02:14:41;;;;;;;7.90;7.80;;;-4.10;99.90;;;;;;5002457;28;20489;-70
2024/01/17 02:17:10;;;;;;;7.40;7.30;;;-4.10;99.90;;;;;;5000864;28;20528;-73
2024/01/17 02:19:38;;;;;;;7.80;7.70;;;-4.10;99.90;;;;;;5007471;28;20497;-71
2024/01/17 02:22:05;;;;;;;7.30;7.20;;;-4.10;99.90;;;;;;5006648;28;20473;-72
2024/01/17 02:24:34;;;;;;;7.33;7.23;;;-4.10;99.90;;;;;;5012025;28;20837;-73
2024/01/17 02:27:01;;;;;;;7.93;7.83;;;-4.10;99.90;;;;;;4999707;28;20485;-73
2024/01/17 02:29:29;;;;;;;7.30;7.20;;;-4.10;99.90;;;;;;4997366;28;20483;-71
2024/01/17 02:31:57;;;;;;;7.23;7.13;;;-4.20;99.90;;;;;;4999718;28;20463;-70
2024/01/17 02:34:23;;;;;;;7.73;7.63;;;-4.20;99.90;;;;;;5003102;28;20457;-71
2024/01/17 02:36:49;;;;;;;7.87;7.77;;;-4.20;99.90;;;;;;4998174;28;20466;-71
2024/01/17 02:39:17;;;;;;;7.80;7.70;;;-4.10;99.90;;;;;;5003220;28;20838;-72
2024/01/17 02:41:45;;;;;;;7.40;7.30;;;-4.10;99.90;;;;;;5000940;28;20835;-72
2024/01/17 02:44:13;;;;;;;7.13;7.03;;;-4.10;99.90;;;;;;5007374;28;20481;-73
2024/01/17 02:46:39;;;;;;;7.70;7.60;;;-4.10;99.90;;;;;;5007049;28;21009;-72
2024/01/17 02:49:08;;;;;;;7.63;7.53;;;-4.10;99.90;;;;;;5005031;28;21248;-72
2024/01/17 02:51:35;;;;;;;8.17;8.07;;;-4.10;99.90;;;;;;5002104;28;20466;-72
2024/01/17 02:54:05;;;;;;;8.40;8.30;;;-4.10;99.90;;;;;;5000539;28;20472;-73
2024/01/17 02:56:32;;;;;;;7.63;7.53;;;-4.10;99.90;;;;;;4998044;28;21349;-71
2024/01/17 02:59:00;;;;;;;7.53;7.43;;;-4.10;99.90;;;;;;5005577;28;20497;-71
2024/01/17 03:01:27;;;;;;;7.50;7.40;;;-4.00;99.90;;;;;;5005950;28;20881;-72
2024/01/17 03:03:54;;;;;;;7.60;7.50;;;-4.10;99.90;;;;;;5008305;28;20467;-73
2024/01/17 03:06:21;;;;;;;8.00;7.90;;;-4.00;99.90;;;;;;5001935;28;20461;-72
2024/01/17 03:08:48;;;;;;;8.13;8.03;;;-4.10;99.90;;;;;;5009145;28;20503;-72
2024/01/17 03:11:15;;;;;;;7.37;7.27;;;-4.10;99.90;;;;;;5004686;28;20470;-70
2024/01/17 03:13:42;;;;;;;7.40;7.30;;;-4.00;99.90;;;;;;4998538;28;20803;-73
2024/01/17 03:16:10;;;;;;;8.37;8.27;;;-4.10;99.90;;;;;;5002050;28;20466;-70
2024/01/17 03:18:38;;;;;;;7.87;7.77;;;-4.10;99.90;;;;;;5001608;28;20979;-71
2024/01/17 03:21:05;;;;;;;7.97;7.87;;;-4.10;99.90;;;;;;5006704;28;20485;-73
2024/01/17 03:23:32;;;;;;;7.70;7.60;;;-4.10;99.90;;;;;;5020075;28;20468;-70
2024/01/17 03:25:59;;;;;;;8.03;7.93;;;-4.10;99.90;;;;;;5005814;28;20781;-72
2024/01/17 03:28:27;;;;;;;8.03;7.93;;;-4.10;99.90;;;;;;5006584;28;20454;-73
2024/01/17 03:30:54;;;;;;;8.10;8.00;;;-4.10;99.90;;;;;;5001562;28;20488;-72
2024/01/17 03:33:22;;;;;;;7.90;7.80;;;-4.10;99.90;;;;;;4999860;28;20561;-72
2024/01/17 03:35:49;;;;;;;8.40;8.30;;;-4.10;99.90;;;;;;5006101;28;20839;-71
2024/01/17 03:38:18;;;;;;;8.27;8.17;;;-4.10;99.90;;;;;;5003428;28;20463;-70
2024/01/17 03:40:45;;;;;;;8.70;8.60;;;-4.10;99.90;;;;;;5006034;28;21053;-70
2024/01/17 03:43:13;;;;;;;8.10;8.00;;;-4.10;99.90;;;;;;4999388;28;20462;-71
2024/01/17 03:45:40;;;;;;;8.30;8.20;;;-4.10;99.90;;;;;;5008251;28;20489;-72
2024/01/17 03:48:07;;;;;;;9.27;9.07;;;-4.20;99.90;;;;;;4999152;28;20543;-73
2024/01/17 03:50:36;;;;;;;8.50;8.40;;;-4.20;99.90;;;;;;4999414;28;20546;-71
2024/01/17 03:53:02;;;;;;;8.80;8.70;;;-4.20;99.90;;;;;;5002207;28;20473;-71
2024/01/17 03:55:29;;;;;;;8.50;8.40;;;-4.20;99.90;;;;;;5004176;28;20856;-70
2024/01/17 03:57:56;;;;;;;7.93;7.83;;;-4.20;99.90;;;;;;4995146;28;20467;-71
2024/01/17 04:00:25;;;;;;;9.23;9.03;;;-4.20;99.90;;;;;;5000232;28;20853;-72
2024/01/17 04:02:51;;;;;;;8.97;8.80;;;-4.20;99.90;;;;;;5005287;28;20877;-73
2024/01/17 04:05:19;;;;;;;9.20;9.00;;;-4.20;99.90;;;;;;5004556;28;20458;-72
2024/01/17 04:07:48;;;;;;;7.97;7.87;;;-4.20;99.90;;;;;;5004645;28;20944;-72
2024/01/17 04:10:16;;;;;;;8.40;8.30;;;-4.20;99.90;;;;;;5003259;28;20462;-73
2024/01/17 04:12:43;;;;;;;8.20;8.10;;;-4.10;99.90;;;;;;5009918;28;20498;-71
2024/01/17 04:15:10;;;;;;;8.40;8.30;;;-4.00;99.90;;;;;;5006587;28;20485;-71
2024/01/17 04:17:36;;;;;;;8.63;8.53;;;-4.00;99.90;;;;;;5005292;28;20496;-71
2024/01/17 04:20:06;;;;;;;8.00;7.90;;;-3.90;99.90;;;;;;5001192;28;20846;-72
2024/01/17 04:22:34;;;;;;;8.67;8.57;;;-3.90;99.90;;;;;;5016162;28;20467;-73
2024/01/17 04:25:02;;;;;;;8.57;8.47;;;-3.90;99.90;;;;;;5009312;28;20519;-71
2024/01/17 04:27:31;;;;;;;8.37;8.27;;;-3.80;99.90;;;;;;5004530;28;20463;-70
2024/01/17 04:29:59;;;;;;;8.00;7.90;;;-3.80;99.90;;;;;;5009578;28;20450;-73
2024/01/17 04:32:25;;;;;;;8.60;8.50;;;-3.80;99.90;;;;;;5004256;28;20464;-72
2024/01/17 04:34:52;;;;;;;8.73;8.63;;;-3.80;99.90;;;;;;5011782;28;20460;-73
2024/01/17 04:37:19;;;;;;;9.30;9.10;;;-3.70;99.90;;;;;;5007373;28;20872;-73
2024/01/17 04:39:46;;;;;;;9.17;8.97;;;-3.70;99.90;;;;;;4999361;28;20495;-70
2024/01/17 04:42:14;;;;;;;8.67;8.57;;;-3.70;99.90;;;;;;4998940;28;20457;-72
2024/01/17 04:44:41;;;;;;;8.60;8.50;;;-3.70;99.90;;;;;;5009332;28;21043;-72
2024/01/17 04:47:09;;;;;;;8.37;8.27;;;-3.70;99.90;;;;;;5005958;28;20482;-71
2024/01/17 04:49:36;;;;;;;8.60;8.50;;;-3.70;99.90;;;;;;5008795;28;20830;-72
2024/01/17 04:52:03;;;;;;;9.40;9.20;;;-3.80;99.90;;;;;;5004284;28;20485;-73
2024/01/17 04:54:31;;;;;;;8.63;8.53;;;-3.70;99.90;;;;;;5006543;28;20904;-72
2024/01/17 04:56:58;;;;;;;8.97;8.77;;;-3.70;99.90;;;;;;5000446;28;20467;-72
2024/01/17 04:59:27;;;;;;;9.20;9.00;;;-3.70;99.90;;;;;;5009063;28;20482;-74
2024/01/17 05:01:54;;;;;;;9.10;8.90;;;-3.60;99.90;;;;;;5003266;28;20884;-73
2024/01/17 05:04:22;;;;;;;9.77;9.57;;;-3.60;99.90;;;;;;5013793;28;20874;-72
2024/01/17 05:06:52;;;;;;;9.60;9.40;;;-3.60;99.90;;;;;;5005392;28;20975;-70
2024/01/17 05:09:18;;;;;;;9.20;9.00;;;-3.60;99.90;;;;;;5009729;28;20466;-73
2024/01/17 05:11:45;;;;;;;9.97;9.77;;;-3.60;99.90;;;;;;5005203;28;20460;-72
2024/01/17 05:14:14;;;;;;;10.37;10.17;;;-3.60;99.90;;;;;;5001110;28;20501;-71
2024/01/17 05:16:43;;;;;;;10.13;9.93;;;-3.60;99.90;;;;;;5008806;28;20469;-70
2024/01/17 05:19:10;;;;;;;9.73;9.53;;;-3.60;99.90;;;;;;5009615;28;20462;-73
2024/01/17 05:21:37;;;;;;;9.93;9.73;;;-3.60;99.90;;;;;;5005609;28;20908;-71
2024/01/17 05:24:04;;;;;;;10.27;10.07;;;-3.60;99.90;;;;;;5014024;28;20957;-73
2024/01/17 05:26:31;;;;;;;9.80;9.60;;;-3.60;99.90;;;;;;5008818;28;20462;-72
2024/01/17 05:28:58;;;;;;;10.43;10.23;;;-3.50;99.90;;;;;;5000017;28;20965;-72
2024/01/17 05:31:26;;;;;;;10.07;9.87;;;-3.50;99.90;;;;;;5000344;28;20841;-71
2024/01/17 05:33:54;;;;;;;10.30;10.10;;;-3.50;99.90;;;;;;5006482;28;20455;-70
2024/01/17 05:36:20;;;;;;;10.07;9.87;;;-3.50;99.90;;;;;;5006368;28;20470;-71
2024/01/17 05:38:48;;;;;;;9.60;9.40;;;-3.40;99.90;;;;;;5003251;28;20813;-73
2024/01/17 05:41:15;;;;;;;10.03;9.83;;;-3.40;99.90;;;;;;5006535;28;20889;-71
2024/01/17 05:43:42;;;;;;;10.30;10.10;;;-3.30;99.90;;;;;;5007669;28;20466;-71
2024/01/17 05:46:09;;;;;;;10.53;10.33;;;-3.30;99.90;;;;;;5013001;28;20901;-71
2024/01/17 05:48:36;;;;;;;11.40;11.10;;;-3.30;99.90;;;;;;4998127;28;20789;-73
2024/01/17 05:51:05;;;;;;;11.10;10.80;;;-3.20;99.90;;;;;;5002812;28;20466;-72
2024/01/17 05:53:32;;;;;;;10.83;10.53;;;-3.20;99.90;;;;;;5004511;28;20465;-73
2024/01/17 05:55:59;;;;;;;11.13;10.83;;;-3.20;99.90;;;;;;5014408;28;20660;-71
2024/01/17 05:58:26;;;;;;;11.00;10.70;;;-3.20;99.90;;;;;;4998425;28;20774;-70
2024/01/17 06:00:54;;;;;;;10.50;10.30;;;-3.20;99.90;;;;;;5007701;28;20509;-72
2024/01/17 06:03:21;;;;;;;11.23;10.93;;;-3.20;99.90;;;;;;5005214;28;21062;-72
2024/01/17 06:05:48;;;;;;;11.43;11.13;;;-3.10;99.90;;;;;;5004384;28;20879;-71
2024/01/17 06:08:17;;;;;;;11.07;10.77;;;-3.10;99.90;;;;;;5016029;28;20810;-72
2024/01/17 06:10:44;;;;;;;11.10;10.80;;;-3.10;99.90;;;;;;4999162;28;21331;-72
2024/01/17 06:13:11;;;;;;;11.50;11.20;;;-3.00;99.90;;;;;;5004380;28;20470;-72
2024/01/17 06:15:39;;;;;;;10.83;10.53;;;-3.00;99.90;;;;;;5007901;28;20539;-72
2024/01/17 06:18:06;;;;;;;11.20;10.90;;;-3.00;99.90;;;;;;5009522;28;20565;-71
2024/01/17 06:20:32;;;;;;;10.83;10.53;;;-3.00;99.90;;;;;;5005331;28;20486;-72
2024/01/17 06:23:00;;;;;;;11.63;11.33;;;-3.00;99.90;;;;;;4999734;28;20497;-73
2024/01/17 06:25:30;;;;;;;11.67;11.37;;;-3.00;99.90;;;;;;5005830;28;20472;-72
2024/01/17 06:27:57;;;;;;;11.70;11.40;;;-3.00;99.90;;;;;;5009635;28;20453;-72
2024/01/17 06:30:24;;;;;;;11.33;11.03;;;-2.90;99.90;;;;;;5007121;28;20567;-72
2024/01/17 06:32:51;;;;;;;11.67;11.37;;;-2.90;99.90;;;;;;5004525;28;20466;-72
2024/01/17 06:35:18;;;;;;;11.37;11.07;;;-2.90;99.90;;;;;;5006804;28;20458;-70
2024/01/17 06:37:45;;;;;;;11.30;11.00;;;-2.90;99.90;;;;;;5002278;28;20462;-69
2024/01/17 06:40:12;;;;;;;11.20;10.90;;;-2.80;99.90;;;;;;5004705;28;21040;-70
2024/01/17 06:42:41;;;;;;;11.40;11.10;;;-2.80;99.90;;;;;;5003324;28;20878;-70
2024/01/17 06:45:08;;;;;;;10.83;10.53;;;-2.80;99.90;;;;;;5005556;28;20469;-72
2024/01/17 06:47:36;;;;;;;11.13;10.83;;;-2.80;99.90;;;;;;5003436;28;21064;-70
2024/01/17 06:50:04;;;;;;;11.50;11.20;;;-2.80;99.90;;;;;;5000648;28;20844;-72
2024/01/17 06:52:31;;;;;;;11.20;10.90;;;-2.80;99.90;;;;;;4999809;28;20476;-70
2024/01/17 06:54:59;;;;;;;11.30;11.00;;;-2.80;99.90;;;;;;5004161;28;20465;-72
2024/01/17 06:57:25;;;;;;;11.43;11.13;;;-2.80;99.90;;;;;;4999673;28;20475;-72
2024/01/17 06:59:54;;;;;;;11.57;11.27;;;-2.70;99.90;;;;;;5004612;28;20485;-72
2024/01/17 07:02:21;;;;;;;11.13;10.83;;;-2.70;99.90;;;;;;5011403;28;20501;-71
2024/01/17 07:04:49;;;;;;;11.50;11.20;;;-2.60;99.90;;;;;;5007280;28;21009;-70
2024/01/17 07:07:16;;;;;;;11.83;11.53;;;-2.60;99.90;;;;;;5004669;28;20466;-71
2024/01/17 07:09:43;;;;;;;11.80;11.50;;;-2.60;99.90;;;;;;4999585;28;20471;-71
2024/01/17 07:12:10;;;;;;;11.70;11.40;;;-2.60;99.90;;;;;;5005043;28;20477;-70
2024/01/17 07:14:37;;;;;;;11.50;11.20;;;-2.60;99.90;;;;;;5003912;28;20477;-72
2024/01/17 07:17:06;;;;;;;11.50;11.20;;;-2.60;99.90;;;;;;5004539;28;20481;-71
2024/01/17 07:19:36;;;;;;;11.90;11.60;;;-2.60;99.90;;;;;;5013696;28;20451;-71
2024/01/17 07:22:03;;;;;;;11.37;11.07;;;-2.50;99.90;;;;;;4999274;28;20494;-72
2024/01/17 07:24:30;;;;;;;11.47;11.17;;;-2.50;99.90;;;;;;4996054;28;20466;-70
2024/01/17 07:26:57;;;;;;;11.67;11.37;;;-2.50;99.90;;;;;;4994778;28;21845;-72
2024/01/17 07:29:23;;;;;;;11.43;11.13;;;-2.50;99.90;;;;;;5004243;28;20984;-69
2024/01/17 07:31:50;;;;;;;11.53;11.23;;;-2.50;99.90;;;;;;5006986;28;20454;-70
2024/01/17 07:34:18;;;;;;;11.70;11.40;;;-2.50;99.90;;;;;;5009490;28;20540;-70
2024/01/17 07:36:46;;;;;;;11.90;11.60;;;-2.50;99.90;;;;;;4999219;28;20552;-69
2024/01/17 07:39:14;;;;;;;11.90;11.60;;;-2.50;99.90;;;;;;4999214;28;20469;-69
2024/01/17 07:41:41;;;;;;;12.10;11.80;;;-2.50;99.90;;;;;;5001066;28;20498;-71
2024/01/17 07:44:09;;;;;;;11.33;11.03;;;-2.40;99.90;;;;;;5007301;28;20483;-71
2024/01/17 07:46:36;;;;;;;11.40;11.10;;;-2.40;99.90;;;;;;5002210;28;20996;-72
2024/01/17 07:49:04;;;;;;;11.50;11.20;;;-2.40;99.90;;;;;;5007394;28;21603;-72
2024/01/17 07:51:32;;;;;;;10.97;10.67;;;-2.40;99.90;;;;;;5008248;28;20458;-72
2024/01/17 07:53:59;;;;;;;11.00;10.70;;;-2.20;99.90;;;;;;5009390;28;20960;-72
2024/01/17 07:56:25;;;;;;;11.37;11.07;;;-2.20;99.90;;;;;;5003803;28;20870;-70
2024/01/17 07:58:52;;;;;;;11.57;11.27;;;-2.20;99.90;;;;;;5010891;28;20477;-70
2024/01/17 08:01:19;;;;;;;11.07;10.77;;;-2.20;99.90;;;;;;5000146;28;20493;-69
2024/01/17 08:03:45;;;;;;;11.20;10.90;;;-2.20;99.90;;;;;;5006818;28;20846;-70
2024/01/17 08:06:12;;;;;;;11.00;10.70;;;-2.10;99.90;;;;;;5009512;28;20466;-70
2024/01/17 08:08:41;;;;;;;10.93;10.63;;;-2.10;99.90;;;;;;5004661;28;20985;-70
2024/01/17 08:11:08;;;;;;;10.80;10.50;;;-2.10;99.90;;;;;;5011574;28;20464;-72
2024/01/17 08:13:35;;;;;;;10.93;10.63;;;-2.00;99.90;;;;;;5010104;28;20470;-71
2024/01/17 08:16:02;;;;;;;11.10;10.80;;;-2.00;99.90;;;;;;5000959;28;20463;-71
2024/01/17 08:18:29;;;;;;;11.90;11.60;;;-2.00;99.90;;;;;;5001513;28;20462;-70
2024/01/17 08:20:57;;;;;;;12.27;11.87;;;-1.90;99.90;;;;;;5004814;28;20498;-71
2024/01/17 08:23:25;;;;;;;11.70;11.40;;;-1.80;99.90;;;;;;5003256;28;20469;-70
2024/01/17 08:25:53;;;;;;;11.47;11.17;;;-1.80;99.90;;;;;;5009558;28;20466;-69
2024/01/17 08:28:20;;;;;;;11.23;10.93;;;-1.80;99.90;;;;;;5005460;28;20462;-70
2024/01/17 08:30:46;;;;;;;11.70;11.40;;;-1.80;99.90;;;;;;5005381;28;20564;-70
2024/01/17 08:33:15;;;;;;;11.53;11.23;;;-1.80;99.90;;;;;;5008893;28;20472;-70
2024/01/17 08:35:42;;;;;;;11.70;11.40;;;-1.70;99.90;;;;;;5006038;28;20927;-73
2024/01/17 08:38:09;;;;;;;11.60;11.30;;;-1.60;99.90;;;;;;5002033;28;20597;-73
2024/01/17 08:40:36;;;;;;;11.73;11.43;;;-1.60;99.90;;;;;;5005772;28;20580;-71
2024/01/17 08:43:04;;;;;;;11.60;11.30;;;-1.50;99.90;;;;;;5002812;28;20600;-72
2024/01/17 08:45:31;;;;;;;12.27;11.87;;;-1.40;99.90;;;;;;5006740;28;20766;-73
2024/01/17 08:47:58;;;;;;;12.30;11.90;;;-1.40;99.90;;;;;;5001048;28;20522;-73
2024/01/17 08:50:25;;;;;;;12.47;12.07;;;-1.40;99.90;;;;;;5007355;28;20462;-73
2024/01/17 08:52:52;;;;;;;12.33;11.93;;;-1.30;99.90;;;;;;4986731;28;20466;-73
2024/01/17 08:55:19;;;;;;;12.10;11.80;;;-1.20;99.90;;;;;;4997341;28;20517;-72
2024/01/17 08:57:46;;;;;;;12.57;12.17;;;-1.20;99.90;;;;;;4996532;28;20524;-71
2024/01/17 09:00:16;;;;;;;12.10;11.80;;;-1.20;99.90;;;;;;4998001;28;20475;-73
2024/01/17 09:02:43;;;;;;;11.90;11.60;;;-1.10;99.90;;;;;;4989635;28;20514;-72
2024/01/17 09:05:11;;;;;;;12.63;12.23;;;-1.20;99.90;;;;;;4997595;28;20517;-72
2024/01/17 09:07:38;;;;;;;12.63;12.23;;;-1.20;99.90;;;;;;4999753;28;20478;-71
2024/01/17 09:10:05;;;;;;;12.33;11.93;;;-1.00;99.90;;;;;;4997988;28;20463;-71
2024/01/17 09:12:32;;;;;;;12.70;12.30;;;-0.90;99.90;;;;;;4993778;28;20474;-72
2024/01/17 09:14:59;;;;;;;12.40;12.00;;;-0.90;99.90;;;;;;4999226;28;20497;-74
2024/01/17 09:17:28;;;;;;;13.13;12.73;;;-1.00;99.90;;;;;;4993382;28;20481;-73
2024/01/17 09:19:55;;;;;;;12.73;12.33;;;-0.90;99.90;;;;;;4994281;28;20545;-72
2024/01/17 09:22:22;;;;;;;13.17;12.77;;;-0.80;99.90;;;;;;4997657;28;20545;-71
2024/01/17 09:24:48;;;;;;;13.10;12.70;;;-0.80;99.90;;;;;;4992023;28;20457;-73
2024/01/17 09:27:16;;;;;;;13.10;12.70;;;-0.70;99.90;;;;;;4997616;28;20470;-71
2024/01/17 09:29:45;;;;;;;13.30;12.90;;;-0.60;99.90;;;;;;4994874;28;20473;-71
2024/01/17 09:32:12;;;;;;;13.30;12.90;;;-0.50;99.90;;;;;;4997262;28;20573;-73
2024/01/17 09:34:41;;;;;;;13.37;12.97;;;-0.40;99.90;;;;;;4988787;28;20826;-73
2024/01/17 09:37:09;;;;;;;13.53;13.10;;;-0.40;99.90;;;;;;4992270;28;21058;-71
2024/01/17 09:39:36;;;;;;;14.00;13.50;;;-0.30;99.90;;;;;;4997854;28;20455;-74
2024/01/17 09:42:06;;;;;;;14.10;13.60;;;-0.40;99.90;;;;;;4997265;28;20853;-74
2024/01/17 09:44:34;;;;;;;13.63;13.13;;;-0.30;99.90;;;;;;4998117;28;20482;-71
2024/01/17 09:47:02;;;;;;;14.10;13.60;;;-0.20;99.90;;;;;;4993354;28;20839;-73
2024/01/17 09:49:29;;;;;;;13.63;13.13;;;-0.10;99.90;;;;;;4996841;28;20960;-72
2024/01/17 09:51:57;;;;;;;13.40;12.97;;;-0.10;99.90;;;;;;4993954;28;20900;-73
2024/01/17 09:54:25;;;;;;;14.20;13.70;;;-0.20;99.90;;;;;;4997099;28;20468;-70
2024/01/17 09:56:55;;;;;;;13.90;13.40;;;-0.20;99.90;;;;;;4995708;28;20597;-73
2024/01/17 09:59:28;;;;;;;14.07;13.57;;;-0.30;99.90;;;;;;4997314;28;20469;-71
2024/01/17 10:01:55;;;;;;;13.97;13.47;;;-0.20;99.90;;;;;;4992170;28;20495;-70
2024/01/17 10:04:24;;;;;;;14.47;13.97;;;-0.20;99.90;;;;;;4997733;28;20481;-71
2024/01/17 10:06:52;;;;;;;13.93;13.43;;;-0.10;99.90;;;;;;4994601;28;20471;-73
2024/01/17 10:09:23;;;;;;;14.00;13.50;;;-0.10;99.90;;;;;;4995304;28;20553;-72
2024/01/17 10:11:50;;;;;;;13.97;13.47;;;-0.10;99.90;;;;;;4996846;28;20966;-74
2024/01/17 10:14:18;;;;;;;14.10;13.60;;;0.00;99.90;;;;;;4997881;28;20548;-75
2024/01/17 10:16:45;;;;;;;14.00;13.50;;;0.00;99.90;;;;;;4994803;28;20465;-75
2024/01/17 10:19:12;;;;;;;14.60;14.10;;;0.10;99.90;;;;;;4990219;28;20471;-74
2024/01/17 10:21:39;;;;;;;14.40;13.90;;;0.10;99.90;;;;;;4993385;28;20490;-73
2024/01/17 10:24:06;;;;;;;14.30;13.80;;;0.20;99.90;;;;;;4988273;28;20466;-72
2024/01/17 10:26:34;;;;;;;14.43;13.93;;;0.30;99.90;;;;;;4994749;28;20585;-72
2024/01/17 10:29:01;;;;;;;14.63;14.13;;;0.30;99.90;;;;;;4996570;28;21330;-72
2024/01/17 10:31:40;;;;;;;14.23;13.73;;;0.20;99.90;;;;;;5025834;27;20579;-70
2024/01/17 10:34:08;;;;;;;14.43;13.93;;;0.30;99.90;;;;;;5027267;27;20476;-74
2024/01/17 10:36:35;;;;;;;14.30;13.80;;;0.40;99.90;;;;;;5029269;27;20551;-72
2024/01/17 10:39:04;;;;;;;14.00;13.50;;;0.30;99.90;;;;;;5029559;27;20908;-72
2024/01/17 10:41:32;;;;;;;14.07;13.57;;;0.30;99.90;;;;;;5023679;27;21368;-74
2024/01/17 10:44:03;;;;;;;14.20;13.70;;;0.40;99.90;;;;;;5028226;27;20469;-74
2024/01/17 10:46:33;;;;;;;14.30;13.80;;;0.40;99.90;;;;;;5029039;27;20460;-70
2024/01/17 10:49:01;;;;;;;14.17;13.67;;;0.60;99.90;;;;;;5023867;27;20473;-73
2024/01/17 10:51:33;;;;;;;14.30;13.80;;;0.60;99.90;;;;;;5021549;27;20529;-74
2024/01/17 10:54:00;;;;;;;14.50;14.00;;;0.70;99.90;;;;;;5024980;27;20909;-73
2024/01/17 10:56:30;;;;;;;14.17;13.67;;;0.80;99.90;;;;;;5023224;27;20465;-75
2024/01/17 10:59:00;;;;;;;14.33;13.83;;;0.70;99.90;;;;;;5024274;27;21274;-75
2024/01/17 11:01:35;;;;;;;14.30;13.80;;;0.80;99.90;;;;;;5019845;27;20466;-74
2024/01/17 11:04:11;;;;;;;14.10;13.60;;;0.80;99.90;;;;;;5022769;27;20464;-73
2024/01/17 11:06:39;;;;;;;14.20;13.70;;;0.90;99.90;;;;;;5018876;27;20949;-72
2024/01/17 11:09:10;;;;;;;14.80;14.30;;;1.00;99.90;;;;;;5024826;27;20467;-76
2024/01/17 11:11:39;;;;;;;14.83;14.33;;;1.10;99.90;;;;;;5025236;27;20494;-73
2024/01/17 11:14:08;;;;;;;14.37;13.87;;;1.10;99.90;;;;;;5018459;27;20470;-74
2024/01/17 11:16:36;;;;;;;14.57;14.07;;;1.10;99.90;;;;;;5020478;27;20866;-74
2024/01/17 11:19:07;;;;;;;14.33;13.83;;;1.10;99.90;;;;;;5022736;27;21096;-71
2024/01/17 11:21:35;;;;;;;14.30;13.80;;;0.90;99.90;;;;;;5022306;27;20482;-75
2024/01/17 11:24:09;;;;;;;14.50;14.00;;;1.00;99.90;;;;;;5023866;27;20476;-73
2024/01/17 11:26:42;;;;;;;14.40;13.90;;;1.00;99.90;;;;;;5025201;27;20496;-75
2024/01/17 11:29:16;;;;;;;13.77;13.30;;;1.00;99.90;;;;;;5025097;27;20950;-73
2024/01/17 11:31:53;;;;;;;14.30;13.80;;;1.00;99.90;;;;;;5026218;27;20587;-73
2024/01/17 11:34:22;;;;;;;14.70;14.20;;;1.00;99.90;;;;;;5018380;27;20464;-72
2024/01/17 11:36:49;;;;;;;14.40;13.90;;;1.00;99.90;;;;;;5018731;27;20584;-73
2024/01/17 11:39:18;;;;;;;14.77;14.27;;;1.00;99.90;;;;;;5025933;27;20556;-72
2024/01/17 11:41:46;;;;;;;14.90;14.40;;;0.90;99.90;;;;;;5011932;27;20457;-72
2024/01/17 11:44:15;;;;;;;14.70;14.20;;;0.90;99.90;;;;;;5007165;27;20867;-71
2024/01/17 11:46:47;;;;;;;14.37;13.87;;;1.00;99.90;;;;;;5007569;27;20459;-71
2024/01/17 11:49:15;;;;;;;15.30;14.70;;;1.00;99.90;;;;;;5012757;27;20971;-72
2024/01/17 11:51:45;;;;;;;14.80;14.30;;;0.80;99.90;;;;;;5007556;28;20499;-72
2024/01/17 11:54:12;;;;;;;14.63;14.13;;;0.70;99.90;;;;;;5008765;27;20476;-71
2024/01/17 11:56:39;;;;;;;15.07;14.47;;;0.60;99.90;;;;;;5009300;28;20467;-74
2024/01/17 11:59:09;;;;;;;14.70;14.20;;;0.60;99.90;;;;;;5007183;27;20456;-71
2024/01/17 12:01:43;;;;;;;14.70;14.20;;;0.60;99.90;;;;;;5011209;27;20600;-72
2024/01/17 12:04:10;;;;;;;15.07;14.47;;;0.50;99.90;;;;;;5008299;27;20517;-73
2024/01/17 12:06:38;;;;;;;16.40;15.70;;;0.50;99.90;;;;;;5008883;27;20952;-70
2024/01/17 12:09:08;;;;;;;16.30;15.60;;;0.40;99.90;;;;;;5012071;27;20478;-71
2024/01/17 12:11:35;;;;;;;16.63;15.93;;;0.30;99.90;;;;;;5001587;27;20563;-74
2024/01/17 12:14:02;;;;;;;16.57;15.87;;;0.40;99.90;;;;;;5008786;27;20472;-73
2024/01/17 12:16:29;;;;;;;15.67;15.07;;;0.50;99.90;;;;;;5008631;28;20471;-73
2024/01/17 12:19:00;;;;;;;15.70;15.10;;;0.40;99.90;;;;;;5011096;28;20474;-73
2024/01/17 12:21:27;;;;;;;15.40;14.80;;;0.30;99.90;;;;;;5009521;27;20476;-72
2024/01/17 12:23:54;;;;;;;15.30;14.70;;;0.10;99.90;;;;;;5012026;27;20489;-73
2024/01/17 12:26:22;;;;;;;15.60;15.00;;;0.20;99.90;;;;;;5005259;28;20475;-73
2024/01/17 12:28:49;;;;;;;15.47;14.87;;;0.30;99.90;;;;;;5004089;28;20544;-71
2024/01/17 12:31:16;;;;;;;15.50;14.90;;;0.10;99.90;;;;;;5009525;28;20508;-71
2024/01/17 12:33:45;;;;;;;15.93;15.23;;;0.10;99.90;;;;;;5008489;27;20570;-72
2024/01/17 12:36:13;;;;;;;15.50;14.90;;;0.20;99.90;;;;;;5009601;27;20474;-70
2024/01/17 12:38:40;;;;;;;14.90;14.30;;;0.20;99.90;;;;;;5012714;27;21075;-72
2024/01/17 12:41:09;;;;;;;15.73;15.03;;;0.20;99.90;;;;;;5006377;28;20764;-73
2024/01/17 12:43:38;;;;;;;15.47;14.87;;;0.10;99.90;;;;;;5013070;27;20860;-72